sensor_id;sensor_type;location;lat;lon;timestamp;pressure;altitude;pressure_sealevel;temperature
71807;BMP280;59655;42.590;23.364;2023-05-14T00:00:13;91943.78;;;12.90
71807;BMP280;59655;42.590;23.364;2023-05-14T00:02:39;91953.56;;;12.87
71807;BMP280;59655;42.590;23.364;2023-05-14T00:05:04;91955.00;;;12.88
71807;BMP280;59655;42.590;23.364;2023-05-14T00:07:30;91949.47;;;12.86
71807;BMP280;59655;42.590;23.364;2023-05-14T00:09:56;91948.59;;;12.84
71807;BMP280;59655;42.590;23.364;2023-05-14T00:12:22;91946.47;;;12.82
71807;BMP280;59655;42.590;23.364;2023-05-14T00:14:47;91947.56;;;12.87
71807;BMP280;59655;42.590;23.364;2023-05-14T00:17:13;91937.25;;;12.83
71807;BMP280;59655;42.590;23.364;2023-05-14T00:19:38;91940.63;;;12.84
71807;BMP280;59655;42.590;23.364;2023-05-14T00:22:06;91935.81;;;12.82
71807;BMP280;59655;42.590;23.364;2023-05-14T00:24:32;91931.03;;;12.81
71807;BMP280;59655;42.590;23.364;2023-05-14T00:26:58;91929.06;;;12.81
71807;BMP280;59655;42.590;23.364;2023-05-14T00:29:23;91919.88;;;12.67
71807;BMP280;59655;42.590;23.364;2023-05-14T00:31:49;91926.81;;;12.70
71807;BMP280;59655;42.590;23.364;2023-05-14T00:34:14;91917.78;;;12.73
71807;BMP280;59655;42.590;23.364;2023-05-14T00:36:39;91921.13;;;12.73
71807;BMP280;59655;42.590;23.364;2023-05-14T00:39:05;91907.78;;;12.73
71807;BMP280;59655;42.590;23.364;2023-05-14T00:41:30;91911.72;;;12.72
71807;BMP280;59655;42.590;23.364;2023-05-14T00:43:56;91905.84;;;12.74
71807;BMP280;59655;42.590;23.364;2023-05-14T00:46:21;91910.13;;;12.69
71807;BMP280;59655;42.590;23.364;2023-05-14T00:48:47;91899.84;;;12.66
71807;BMP280;59655;42.590;23.364;2023-05-14T00:51:12;91903.75;;;12.65
71807;BMP280;59655;42.590;23.364;2023-05-14T00:53:38;91897.03;;;12.64
71807;BMP280;59655;42.590;23.364;2023-05-14T00:56:04;91905.19;;;12.66
71807;BMP280;59655;42.590;23.364;2023-05-14T00:58:30;91899.16;;;12.65
71807;BMP280;59655;42.590;23.364;2023-05-14T01:00:55;91906.03;;;12.68
71807;BMP280;59655;42.590;23.364;2023-05-14T01:03:21;91894.88;;;12.70
71807;BMP280;59655;42.590;23.364;2023-05-14T01:06:00;91895.91;;;12.67
71807;BMP280;59655;42.590;23.364;2023-05-14T01:11:18;91885.13;;;12.65
71807;BMP280;59655;42.590;23.364;2023-05-14T01:14:07;91896.66;;;12.67
71807;BMP280;59655;42.590;23.364;2023-05-14T01:16:35;91891.88;;;12.66
71807;BMP280;59655;42.590;23.364;2023-05-14T01:19:04;91880.88;;;12.62
71807;BMP280;59655;42.590;23.364;2023-05-14T01:21:38;91893.44;;;12.61
71807;BMP280;59655;42.590;23.364;2023-05-14T01:24:07;91901.44;;;12.61
71807;BMP280;59655;42.590;23.364;2023-05-14T01:26:33;91898.06;;;12.61
71807;BMP280;59655;42.590;23.364;2023-05-14T01:29:03;91902.34;;;12.64
71807;BMP280;59655;42.590;23.364;2023-05-14T01:31:33;91898.78;;;12.61
71807;BMP280;59655;42.590;23.364;2023-05-14T01:34:02;91901.66;;;12.56
71807;BMP280;59655;42.590;23.364;2023-05-14T01:36:29;91898.63;;;12.52
71807;BMP280;59655;42.590;23.364;2023-05-14T01:38:55;91904.84;;;12.54
71807;BMP280;59655;42.590;23.364;2023-05-14T01:41:22;91903.25;;;12.51
71807;BMP280;59655;42.590;23.364;2023-05-14T01:43:48;91910.53;;;12.50
71807;BMP280;59655;42.590;23.364;2023-05-14T01:46:17;91902.69;;;12.53
71807;BMP280;59655;42.590;23.364;2023-05-14T01:48:43;91903.97;;;12.52
71807;BMP280;59655;42.590;23.364;2023-05-14T01:51:08;91902.19;;;12.46
71807;BMP280;59655;42.590;23.364;2023-05-14T01:53:33;91904.50;;;12.50
71807;BMP280;59655;42.590;23.364;2023-05-14T01:55:59;91917.09;;;12.49
71807;BMP280;59655;42.590;23.364;2023-05-14T01:58:25;91918.34;;;12.48
71807;BMP280;59655;42.590;23.364;2023-05-14T02:00:50;91924.56;;;12.43
71807;BMP280;59655;42.590;23.364;2023-05-14T02:03:15;91918.00;;;12.44
71807;BMP280;59655;42.590;23.364;2023-05-14T02:05:41;91919.06;;;12.41
71807;BMP280;59655;42.590;23.364;2023-05-14T02:08:06;91913.38;;;12.45
71807;BMP280;59655;42.590;23.364;2023-05-14T02:10:31;91910.72;;;12.45
71807;BMP280;59655;42.590;23.364;2023-05-14T02:12:57;91910.19;;;12.46
71807;BMP280;59655;42.590;23.364;2023-05-14T02:15:22;91908.22;;;12.47
71807;BMP280;59655;42.590;23.364;2023-05-14T02:17:48;91909.47;;;12.46
71807;BMP280;59655;42.590;23.364;2023-05-14T02:20:13;91911.59;;;12.40
71807;BMP280;59655;42.590;23.364;2023-05-14T02:22:38;91910.91;;;12.39
71807;BMP280;59655;42.590;23.364;2023-05-14T02:25:07;91909.13;;;12.34
71807;BMP280;59655;42.590;23.364;2023-05-14T02:27:32;91910.91;;;12.32
71807;BMP280;59655;42.590;23.364;2023-05-14T02:29:58;91905.59;;;12.32
71807;BMP280;59655;42.590;23.364;2023-05-14T02:32:26;91916.06;;;12.30
71807;BMP280;59655;42.590;23.364;2023-05-14T02:34:51;91912.72;;;12.29
71807;BMP280;59655;42.590;23.364;2023-05-14T02:37:16;91924.75;;;12.22
71807;BMP280;59655;42.590;23.364;2023-05-14T02:39:42;91916.41;;;12.26
71807;BMP280;59655;42.590;23.364;2023-05-14T02:42:10;91933.81;;;12.27
71807;BMP280;59655;42.590;23.364;2023-05-14T02:44:36;91928.84;;;12.31
71807;BMP280;59655;42.590;23.364;2023-05-14T02:47:01;91940.72;;;12.30
71807;BMP280;59655;42.590;23.364;2023-05-14T02:49:27;91935.75;;;12.26
71807;BMP280;59655;42.590;23.364;2023-05-14T02:51:52;91937.53;;;12.24
71807;BMP280;59655;42.590;23.364;2023-05-14T02:54:18;91936.13;;;12.23
71807;BMP280;59655;42.590;23.364;2023-05-14T02:56:43;91934.34;;;12.25
71807;BMP280;59655;42.590;23.364;2023-05-14T02:59:09;91943.03;;;12.26
71807;BMP280;59655;42.590;23.364;2023-05-14T03:01:34;91935.22;;;12.28
71807;BMP280;59655;42.590;23.364;2023-05-14T03:04:00;91935.22;;;12.20
71807;BMP280;59655;42.590;23.364;2023-05-14T03:06:25;91935.41;;;12.22
71807;BMP280;59655;42.590;23.364;2023-05-14T03:08:51;91933.09;;;12.19
71807;BMP280;59655;42.590;23.364;2023-05-14T03:11:16;91919.44;;;12.15
71807;BMP280;59655;42.590;23.364;2023-05-14T03:13:42;91913.94;;;12.13
71807;BMP280;59655;42.590;23.364;2023-05-14T03:16:08;91915.91;;;12.12
71807;BMP280;59655;42.590;23.364;2023-05-14T03:18:33;91916.09;;;12.06
71807;BMP280;59655;42.590;23.364;2023-05-14T03:21:00;91909.53;;;12.08
71807;BMP280;59655;42.590;23.364;2023-05-14T03:23:26;91916.97;;;12.09
71807;BMP280;59655;42.590;23.364;2023-05-14T03:25:52;91918.94;;;12.09
71807;BMP280;59655;42.590;23.364;2023-05-14T03:28:17;91920.53;;;12.04
71807;BMP280;59655;42.590;23.364;2023-05-14T03:30:42;91922.66;;;12.05
71807;BMP280;59655;42.590;23.364;2023-05-14T03:33:08;91920.19;;;12.08
71807;BMP280;59655;42.590;23.364;2023-05-14T03:35:33;91904.41;;;12.02
71807;BMP280;59655;42.590;23.364;2023-05-14T03:37:59;91915.91;;;12.04
71807;BMP280;59655;42.590;23.364;2023-05-14T03:40:24;91923.69;;;12.02
71807;BMP280;59655;42.590;23.364;2023-05-14T03:42:50;91921.22;;;12.04
71807;BMP280;59655;42.590;23.364;2023-05-14T03:45:15;91915.19;;;12.04
71807;BMP280;59655;42.590;23.364;2023-05-14T03:47:40;91922.09;;;12.07
71807;BMP280;59655;42.590;23.364;2023-05-14T03:50:07;91910.94;;;12.09
71807;BMP280;59655;42.590;23.364;2023-05-14T03:52:32;91917.53;;;12.08
71807;BMP280;59655;42.590;23.364;2023-05-14T03:54:58;91925.50;;;12.08
71807;BMP280;59655;42.590;23.364;2023-05-14T03:57:23;91916.25;;;12.09
71807;BMP280;59655;42.590;23.364;2023-05-14T03:59:48;91911.81;;;12.03
71807;BMP280;59655;42.590;23.364;2023-05-14T04:02:14;91921.59;;;12.09
71807;BMP280;59655;42.590;23.364;2023-05-14T04:04:39;91924.25;;;12.09
71807;BMP280;59655;42.590;23.364;2023-05-14T04:07:06;91925.31;;;12.05
71807;BMP280;59655;42.590;23.364;2023-05-14T04:09:33;91926.19;;;12.08
71807;BMP280;59655;42.590;23.364;2023-05-14T04:11:58;91925.66;;;12.10
71807;BMP280;59655;42.590;23.364;2023-05-14T04:14:24;91921.59;;;12.09
71807;BMP280;59655;42.590;23.364;2023-05-14T04:16:49;91925.09;;;12.03
71807;BMP280;59655;42.590;23.364;2023-05-14T04:19:14;91921.22;;;12.04
71807;BMP280;59655;42.590;23.364;2023-05-14T04:21:40;91927.44;;;12.07
71807;BMP280;59655;42.590;23.364;2023-05-14T04:24:06;91938.41;;;12.03
71807;BMP280;59655;42.590;23.364;2023-05-14T04:26:31;91938.06;;;12.07
71807;BMP280;59655;42.590;23.364;2023-05-14T04:28:57;91943.19;;;12.05
71807;BMP280;59655;42.590;23.364;2023-05-14T04:31:26;91947.63;;;12.02
71807;BMP280;59655;42.590;23.364;2023-05-14T04:33:52;91958.13;;;12.00
71807;BMP280;59655;42.590;23.364;2023-05-14T04:36:17;91954.19;;;12.01
71807;BMP280;59655;42.590;23.364;2023-05-14T04:38:43;91952.63;;;11.98
71807;BMP280;59655;42.590;23.364;2023-05-14T04:41:08;91965.91;;;11.98
71807;BMP280;59655;42.590;23.364;2023-05-14T04:43:33;91965.22;;;11.98
71807;BMP280;59655;42.590;23.364;2023-05-14T04:45:59;91962.00;;;11.99
71807;BMP280;59655;42.590;23.364;2023-05-14T04:48:25;91959.16;;;11.97
71807;BMP280;59655;42.590;23.364;2023-05-14T04:50:50;91968.91;;;11.87
71807;BMP280;59655;42.590;23.364;2023-05-14T04:53:16;91972.97;;;11.80
71807;BMP280;59655;42.590;23.364;2023-05-14T04:55:41;91975.63;;;11.88
71807;BMP280;59655;42.590;23.364;2023-05-14T04:58:07;91976.00;;;11.84
71807;BMP280;59655;42.590;23.364;2023-05-14T05:00:33;91982.03;;;11.85
71807;BMP280;59655;42.590;23.364;2023-05-14T05:02:58;91982.19;;;11.79
71807;BMP280;59655;42.590;23.364;2023-05-14T05:05:24;91984.16;;;11.79
71807;BMP280;59655;42.590;23.364;2023-05-14T05:07:50;91990.34;;;11.81
71807;BMP280;59655;42.590;23.364;2023-05-14T05:10:15;91998.16;;;11.79
71807;BMP280;59655;42.590;23.364;2023-05-14T05:12:41;92004.66;;;11.71
71807;BMP280;59655;42.590;23.364;2023-05-14T05:15:07;92000.94;;;11.66
71807;BMP280;59655;42.590;23.364;2023-05-14T05:17:34;92002.88;;;11.66
71807;BMP280;59655;42.590;23.364;2023-05-14T05:19:59;92002.53;;;11.61
71807;BMP280;59655;42.590;23.364;2023-05-14T05:22:25;91999.53;;;11.57
71807;BMP280;59655;42.590;23.364;2023-05-14T05:24:50;92012.41;;;11.53
71807;BMP280;59655;42.590;23.364;2023-05-14T05:27:15;92017.03;;;11.53
71807;BMP280;59655;42.590;23.364;2023-05-14T05:29:42;92012.63;;;11.63
71807;BMP280;59655;42.590;23.364;2023-05-14T05:32:08;92015.47;;;11.57
71807;BMP280;59655;42.590;23.364;2023-05-14T05:34:33;92018.97;;;11.52
71807;BMP280;59655;42.590;23.364;2023-05-14T05:36:59;92013.47;;;11.50
71807;BMP280;59655;42.590;23.364;2023-05-14T05:39:25;92014.72;;;11.49
71807;BMP280;59655;42.590;23.364;2023-05-14T05:41:50;92023.56;;;11.44
71807;BMP280;59655;42.590;23.364;2023-05-14T05:44:16;92022.13;;;11.43
71807;BMP280;59655;42.590;23.364;2023-05-14T05:46:41;92028.50;;;11.40
71807;BMP280;59655;42.590;23.364;2023-05-14T05:49:06;92034.19;;;11.44
71807;BMP280;59655;42.590;23.364;2023-05-14T05:51:32;92037.91;;;11.41
71807;BMP280;59655;42.590;23.364;2023-05-14T05:53:57;92037.34;;;11.43
71807;BMP280;59655;42.590;23.364;2023-05-14T05:56:23;92039.47;;;11.36
71807;BMP280;59655;42.590;23.364;2023-05-14T05:58:48;92037.00;;;11.38
71807;BMP280;59655;42.590;23.364;2023-05-14T06:01:13;92027.59;;;11.37
71807;BMP280;59655;42.590;23.364;2023-05-14T06:03:39;92024.91;;;11.30
71807;BMP280;59655;42.590;23.364;2023-05-14T06:06:04;92016.38;;;11.24
71807;BMP280;59655;42.590;23.364;2023-05-14T06:08:30;92018.53;;;11.25
71807;BMP280;59655;42.590;23.364;2023-05-14T06:10:56;92007.91;;;11.25
71807;BMP280;59655;42.590;23.364;2023-05-14T06:13:21;92012.78;;;11.13
71807;BMP280;59655;42.590;23.364;2023-05-14T06:15:46;92020.44;;;11.17
71807;BMP280;59655;42.590;23.364;2023-05-14T06:18:12;92020.56;;;11.11
71807;BMP280;59655;42.590;23.364;2023-05-14T06:20:37;92016.88;;;11.14
71807;BMP280;59655;42.590;23.364;2023-05-14T06:23:03;92013.34;;;11.19
71807;BMP280;59655;42.590;23.364;2023-05-14T06:25:28;92003.28;;;11.26
71807;BMP280;59655;42.590;23.364;2023-05-14T06:27:53;91997.41;;;11.19
71807;BMP280;59655;42.590;23.364;2023-05-14T06:30:19;92006.44;;;11.16
71807;BMP280;59655;42.590;23.364;2023-05-14T06:32:44;92006.75;;;11.13
71807;BMP280;59655;42.590;23.364;2023-05-14T06:35:09;92013.50;;;11.14
71807;BMP280;59655;42.590;23.364;2023-05-14T06:37:35;92018.50;;;11.17
71807;BMP280;59655;42.590;23.364;2023-05-14T06:40:01;92010.63;;;11.04
71807;BMP280;59655;42.590;23.364;2023-05-14T06:42:27;92015.78;;;11.10
71807;BMP280;59655;42.590;23.364;2023-05-14T06:44:53;92015.44;;;11.13
71807;BMP280;59655;42.590;23.364;2023-05-14T06:47:18;92020.22;;;11.07
71807;BMP280;59655;42.590;23.364;2023-05-14T06:49:44;92011.34;;;11.12
71807;BMP280;59655;42.590;23.364;2023-05-14T06:52:09;91996.13;;;11.13
71807;BMP280;59655;42.590;23.364;2023-05-14T06:54:35;91993.47;;;11.13
71807;BMP280;59655;42.590;23.364;2023-05-14T06:57:00;91999.00;;;11.15
71807;BMP280;59655;42.590;23.364;2023-05-14T06:59:26;91989.78;;;11.16
71807;BMP280;59655;42.590;23.364;2023-05-14T07:01:51;91981.66;;;11.22
71807;BMP280;59655;42.590;23.364;2023-05-14T07:04:16;91980.97;;;11.21
71807;BMP280;59655;42.590;23.364;2023-05-14T07:06:42;91982.88;;;11.21
71807;BMP280;59655;42.590;23.364;2023-05-14T07:09:07;91983.66;;;11.29
71807;BMP280;59655;42.590;23.364;2023-05-14T07:11:33;91980.66;;;11.32
71807;BMP280;59655;42.590;23.364;2023-05-14T07:13:58;91980.13;;;11.34
71807;BMP280;59655;42.590;23.364;2023-05-14T07:16:24;91985.25;;;11.32
71807;BMP280;59655;42.590;23.364;2023-05-14T07:18:50;91992.84;;;11.28
71807;BMP280;59655;42.590;23.364;2023-05-14T07:21:15;92002.75;;;11.27
71807;BMP280;59655;42.590;23.364;2023-05-14T07:23:41;92003.28;;;11.26
71807;BMP280;59655;42.590;23.364;2023-05-14T07:26:06;92010.69;;;11.19
71807;BMP280;59655;42.590;23.364;2023-05-14T07:28:32;92004.66;;;11.19
71807;BMP280;59655;42.590;23.364;2023-05-14T07:30:58;92012.28;;;11.23
71807;BMP280;59655;42.590;23.364;2023-05-14T07:33:24;92004.66;;;11.19
71807;BMP280;59655;42.590;23.364;2023-05-14T07:35:50;92013.69;;;11.16
71807;BMP280;59655;42.590;23.364;2023-05-14T07:38:15;92014.41;;;11.16
71807;BMP280;59655;42.590;23.364;2023-05-14T07:40:41;92004.31;;;11.15
71807;BMP280;59655;42.590;23.364;2023-05-14T07:43:07;92006.75;;;11.13
71807;BMP280;59655;42.590;23.364;2023-05-14T07:45:33;92011.34;;;11.12
71807;BMP280;59655;42.590;23.364;2023-05-14T07:48:00;91999.50;;;11.13
71807;BMP280;59655;42.590;23.364;2023-05-14T07:50:25;92015.28;;;11.19
71807;BMP280;59655;42.590;23.364;2023-05-14T07:52:50;92029.13;;;11.17
71807;BMP280;59655;42.590;23.364;2023-05-14T07:55:16;92029.25;;;11.12
71807;BMP280;59655;42.590;23.364;2023-05-14T07:57:41;92030.34;;;11.16
71807;BMP280;59655;42.590;23.364;2023-05-14T08:00:07;92033.72;;;11.17
71807;BMP280;59655;42.590;23.364;2023-05-14T08:02:33;92036.88;;;11.15
71807;BMP280;59655;42.590;23.364;2023-05-14T08:04:58;92018.09;;;11.13
71807;BMP280;59655;42.590;23.364;2023-05-14T08:07:23;92021.66;;;11.16
71807;BMP280;59655;42.590;23.364;2023-05-14T08:09:49;92018.16;;;11.21
71807;BMP280;59655;42.590;23.364;2023-05-14T08:12:15;92021.69;;;11.24
71807;BMP280;59655;42.590;23.364;2023-05-14T08:14:40;92014.63;;;11.26
71807;BMP280;59655;42.590;23.364;2023-05-14T08:17:06;92007.41;;;11.34
71807;BMP280;59655;42.590;23.364;2023-05-14T08:19:31;92007.94;;;11.33
71807;BMP280;59655;42.590;23.364;2023-05-14T08:21:57;92002.78;;;11.35
71807;BMP280;59655;42.590;23.364;2023-05-14T08:24:22;92012.75;;;11.42
71807;BMP280;59655;42.590;23.364;2023-05-14T08:26:48;92006.72;;;11.42
71807;BMP280;59655;42.590;23.364;2023-05-14T08:29:13;92002.31;;;11.44
71807;BMP280;59655;42.590;23.364;2023-05-14T08:31:39;91998.22;;;11.51
71807;BMP280;59655;42.590;23.364;2023-05-14T08:34:04;92003.72;;;11.53
71807;BMP280;59655;42.590;23.364;2023-05-14T08:36:30;91997.38;;;11.56
71807;BMP280;59655;42.590;23.364;2023-05-14T08:38:55;92000.03;;;11.56
71807;BMP280;59655;42.590;23.364;2023-05-14T08:41:21;91988.69;;;11.55
71807;BMP280;59655;42.590;23.364;2023-05-14T08:43:57;91983.00;;;11.51
71807;BMP280;59655;42.590;23.364;2023-05-14T08:46:27;91972.75;;;11.55
71807;BMP280;59655;42.590;23.364;2023-05-14T08:48:59;91976.13;;;11.56
71807;BMP280;59655;42.590;23.364;2023-05-14T08:51:26;91982.13;;;11.49
71807;BMP280;59655;42.590;23.364;2023-05-14T08:53:51;91981.97;;;11.54
71807;BMP280;59655;42.590;23.364;2023-05-14T08:56:17;91967.25;;;11.61
71807;BMP280;59655;42.590;23.364;2023-05-14T08:58:43;91965.50;;;11.56
71807;BMP280;59655;42.590;23.364;2023-05-14T09:01:09;91974.16;;;11.56
71807;BMP280;59655;42.590;23.364;2023-05-14T09:03:35;91980.72;;;11.55
71807;BMP280;59655;42.590;23.364;2023-05-14T09:06:01;91976.84;;;11.56
71807;BMP280;59655;42.590;23.364;2023-05-14T09:08:27;91974.66;;;11.47
71807;BMP280;59655;42.590;23.364;2023-05-14T09:10:52;91992.06;;;11.48
71807;BMP280;59655;42.590;23.364;2023-05-14T09:13:18;91979.13;;;11.52
71807;BMP280;59655;42.590;23.364;2023-05-14T09:15:44;91967.22;;;11.53
71807;BMP280;59655;42.590;23.364;2023-05-14T09:18:10;91977.88;;;11.53
71807;BMP280;59655;42.590;23.364;2023-05-14T09:20:36;91973.81;;;11.60
71807;BMP280;59655;42.590;23.364;2023-05-14T09:23:02;91974.88;;;11.57
71807;BMP280;59655;42.590;23.364;2023-05-14T09:25:31;91991.34;;;11.55
71807;BMP280;59655;42.590;23.364;2023-05-14T09:27:57;91975.03;;;11.59
71807;BMP280;59655;42.590;23.364;2023-05-14T09:30:24;91970.28;;;11.57
71807;BMP280;59655;42.590;23.364;2023-05-14T09:32:52;91964.06;;;11.62
71807;BMP280;59655;42.590;23.364;2023-05-14T09:35:19;91962.66;;;11.61
71807;BMP280;59655;42.590;23.364;2023-05-14T09:37:47;91972.94;;;11.65
71807;BMP280;59655;42.590;23.364;2023-05-14T09:40:13;91979.16;;;11.68
71807;BMP280;59655;42.590;23.364;2023-05-14T09:42:43;91966.06;;;11.70
71807;BMP280;59655;42.590;23.364;2023-05-14T09:45:10;91955.25;;;11.75
71807;BMP280;59655;42.590;23.364;2023-05-14T09:47:42;91949.22;;;11.75
71807;BMP280;59655;42.590;23.364;2023-05-14T09:50:11;91937.16;;;11.74
71807;BMP280;59655;42.590;23.364;2023-05-14T09:52:37;91935.75;;;11.80
71807;BMP280;59655;42.590;23.364;2023-05-14T09:55:03;91935.06;;;11.80
71807;BMP280;59655;42.590;23.364;2023-05-14T09:57:28;91944.09;;;11.84
71807;BMP280;59655;42.590;23.364;2023-05-14T09:59:54;91939.13;;;11.81
71807;BMP280;59655;42.590;23.364;2023-05-14T10:04:52;91922.84;;;11.84
71807;BMP280;59655;42.590;23.364;2023-05-14T10:07:21;91916.97;;;11.86
71807;BMP280;59655;42.590;23.364;2023-05-14T10:09:53;91918.91;;;11.86
71807;BMP280;59655;42.590;23.364;2023-05-14T10:12:21;91929.72;;;11.88
71807;BMP280;59655;42.590;23.364;2023-05-14T10:14:49;91920.16;;;11.84
71807;BMP280;59655;42.590;23.364;2023-05-14T10:17:19;91912.88;;;11.77
71807;BMP280;59655;42.590;23.364;2023-05-14T10:19:52;91909.34;;;11.75
71807;BMP280;59655;42.590;23.364;2023-05-14T10:22:22;91899.78;;;11.79
71807;BMP280;59655;42.590;23.364;2023-05-14T10:24:49;91906.50;;;11.80
71807;BMP280;59655;42.590;23.364;2023-05-14T10:27:20;91899.59;;;11.77
71807;BMP280;59655;42.590;23.364;2023-05-14T10:29:54;91908.78;;;11.69
71807;BMP280;59655;42.590;23.364;2023-05-14T10:32:23;91913.41;;;11.68
71807;BMP280;59655;42.590;23.364;2023-05-14T10:34:51;91908.44;;;11.72
71807;BMP280;59655;42.590;23.364;2023-05-14T10:37:20;91913.94;;;11.82
71807;BMP280;59655;42.590;23.364;2023-05-14T10:42:21;91917.34;;;11.98
71807;BMP280;59655;42.590;23.364;2023-05-14T10:44:52;91919.78;;;12.03
71807;BMP280;59655;42.590;23.364;2023-05-14T10:47:18;91923.00;;;12.10
71807;BMP280;59655;42.590;23.364;2023-05-14T10:49:45;91909.16;;;12.11
71807;BMP280;59655;42.590;23.364;2023-05-14T10:52:15;91920.69;;;12.14
71807;BMP280;59655;42.590;23.364;2023-05-14T10:54:47;91918.22;;;12.16
71807;BMP280;59655;42.590;23.364;2023-05-14T10:57:13;91905.25;;;12.20
71807;BMP280;59655;42.590;23.364;2023-05-14T10:59:41;91893.72;;;12.25
71807;BMP280;59655;42.590;23.364;2023-05-14T11:04:57;91900.75;;;12.45
71807;BMP280;59655;42.590;23.364;2023-05-14T11:07:31;91886.41;;;12.48
71807;BMP280;59655;42.590;23.364;2023-05-14T11:10:04;91894.91;;;12.47
71807;BMP280;59655;42.590;23.364;2023-05-14T11:12:30;91890.28;;;12.47
71807;BMP280;59655;42.590;23.364;2023-05-14T11:14:56;91899.53;;;12.46
71807;BMP280;59655;42.590;23.364;2023-05-14T11:17:24;91895.09;;;12.49
71807;BMP280;59655;42.590;23.364;2023-05-14T11:19:50;91887.31;;;12.43
71807;BMP280;59655;42.590;23.364;2023-05-14T11:22:16;91897.94;;;12.43
71807;BMP280;59655;42.590;23.364;2023-05-14T11:24:41;91895.81;;;12.42
71807;BMP280;59655;42.590;23.364;2023-05-14T11:27:07;91900.25;;;12.47
71807;BMP280;59655;42.590;23.364;2023-05-14T11:29:36;91901.84;;;12.50
71807;BMP280;59655;42.590;23.364;2023-05-14T11:32:04;91894.56;;;12.50
71807;BMP280;59655;42.590;23.364;2023-05-14T11:34:30;91891.38;;;12.52
71807;BMP280;59655;42.590;23.364;2023-05-14T11:36:56;91896.34;;;12.56
71807;BMP280;59655;42.590;23.364;2023-05-14T11:39:21;91887.28;;;12.59
71807;BMP280;59655;42.590;23.364;2023-05-14T11:41:47;91895.41;;;12.61
71807;BMP280;59655;42.590;23.364;2023-05-14T11:44:12;91881.56;;;12.62
71807;BMP280;59655;42.590;23.364;2023-05-14T11:46:37;91889.94;;;12.59
71807;BMP280;59655;42.590;23.364;2023-05-14T11:49:03;91889.03;;;12.64
71807;BMP280;59655;42.590;23.364;2023-05-14T11:51:29;91884.41;;;12.64
71807;BMP280;59655;42.590;23.364;2023-05-14T11:53:54;91872.50;;;12.73
71807;BMP280;59655;42.590;23.364;2023-05-14T11:56:20;91876.03;;;12.76
71807;BMP280;59655;42.590;23.364;2023-05-14T11:58:47;91872.81;;;12.85
71807;BMP280;59655;42.590;23.364;2023-05-14T12:01:14;91877.03;;;12.88
71807;BMP280;59655;42.590;23.364;2023-05-14T12:03:40;91868.88;;;12.86
71807;BMP280;59655;42.590;23.364;2023-05-14T12:06:06;91868.16;;;12.93
71807;BMP280;59655;42.590;23.364;2023-05-14T12:08:35;91866.88;;;12.94
71807;BMP280;59655;42.590;23.364;2023-05-14T12:11:02;91871.66;;;12.95
71807;BMP280;59655;42.590;23.364;2023-05-14T12:13:30;91862.94;;;13.03
71807;BMP280;59655;42.590;23.364;2023-05-14T12:15:58;91868.44;;;13.05
71807;BMP280;59655;42.590;23.364;2023-05-14T12:18:26;91860.63;;;13.07
71807;BMP280;59655;42.590;23.364;2023-05-14T12:20:52;91846.38;;;13.12
71807;BMP280;59655;42.590;23.364;2023-05-14T12:23:25;91859.53;;;13.10
71807;BMP280;59655;42.590;23.364;2023-05-14T12:25:51;91860.41;;;13.12
71807;BMP280;59655;42.590;23.364;2023-05-14T12:28:18;91854.25;;;13.02
71807;BMP280;59655;42.590;23.364;2023-05-14T12:30:44;91846.94;;;13.03
71807;BMP280;59655;42.590;23.364;2023-05-14T12:33:10;91836.50;;;12.97
71807;BMP280;59655;42.590;23.364;2023-05-14T12:35:35;91845.63;;;12.86
71807;BMP280;59655;42.590;23.364;2023-05-14T12:38:02;91844.91;;;12.86
71807;BMP280;59655;42.590;23.364;2023-05-14T12:40:27;91836.94;;;12.86
71807;BMP280;59655;42.590;23.364;2023-05-14T12:42:53;91828.44;;;12.80
71807;BMP280;59655;42.590;23.364;2023-05-14T13:32:29;91817.72;;;11.68
71807;BMP280;59655;42.590;23.364;2023-05-14T13:34:54;91819.31;;;11.79
71807;BMP280;59655;42.590;23.364;2023-05-14T13:37:20;91823.72;;;11.76
71807;BMP280;59655;42.590;23.364;2023-05-14T13:39:46;91822.50;;;11.70
71807;BMP280;59655;42.590;23.364;2023-05-14T13:42:11;91814.53;;;11.77
71807;BMP280;59655;42.590;23.364;2023-05-14T13:44:36;91811.69;;;11.83
71807;BMP280;59655;42.590;23.364;2023-05-14T13:47:02;91805.47;;;11.80
71807;BMP280;59655;42.590;23.364;2023-05-14T13:49:28;91798.41;;;11.75
71807;BMP280;59655;42.590;23.364;2023-05-14T13:51:54;91789.91;;;11.69
71807;BMP280;59655;42.590;23.364;2023-05-14T13:54:19;91778.91;;;11.73
71807;BMP280;59655;42.590;23.364;2023-05-14T13:56:45;91783.16;;;11.76
71807;BMP280;59655;42.590;23.364;2023-05-14T13:59:10;91777.66;;;11.74
71807;BMP280;59655;42.590;23.364;2023-05-14T14:01:37;91797.31;;;11.78
71807;BMP280;59655;42.590;23.364;2023-05-14T14:04:03;91809.03;;;11.75
71807;BMP280;59655;42.590;23.364;2023-05-14T14:06:30;91814.72;;;11.79
71807;BMP280;59655;42.590;23.364;2023-05-14T14:08:56;91807.44;;;11.80
71807;BMP280;59655;42.590;23.364;2023-05-14T14:11:22;91815.41;;;11.80
71807;BMP280;59655;42.590;23.364;2023-05-14T14:13:47;91814.53;;;11.70
71807;BMP280;59655;42.590;23.364;2023-05-14T14:16:13;91807.78;;;11.76
71807;BMP280;59655;42.590;23.364;2023-05-14T14:18:38;91801.56;;;11.74
71807;BMP280;59655;42.590;23.364;2023-05-14T14:21:04;91802.47;;;11.76
71807;BMP280;59655;42.590;23.364;2023-05-14T14:23:30;91800.34;;;11.75
71807;BMP280;59655;42.590;23.364;2023-05-14T14:25:56;91803.38;;;11.71
71807;BMP280;59655;42.590;23.364;2023-05-14T14:28:21;91799.81;;;11.69
71807;BMP280;59655;42.590;23.364;2023-05-14T14:30:47;91791.84;;;11.69
71807;BMP280;59655;42.590;23.364;2023-05-14T14:33:13;91795.22;;;11.77
71807;BMP280;59655;42.590;23.364;2023-05-14T14:35:38;91792.19;;;11.80
71807;BMP280;59655;42.590;23.364;2023-05-14T14:38:04;91786.69;;;11.78
71807;BMP280;59655;42.590;23.364;2023-05-14T14:40:32;91785.81;;;11.76
71807;BMP280;59655;42.590;23.364;2023-05-14T14:42:57;91780.31;;;11.74
71807;BMP280;59655;42.590;23.364;2023-05-14T14:45:23;91781.91;;;11.77
71807;BMP280;59655;42.590;23.364;2023-05-14T14:47:49;91777.66;;;11.74